createdAt,value
2019-06-01T00:00:18.734Z,15.91
2019-06-01T00:02:55.477Z,15.88
2019-06-01T00:05:19.751Z,15.87
2019-06-01T00:07:50.607Z,15.85
2019-06-01T00:10:20.357Z,15.81
2019-06-01T00:12:50.291Z,15.79
2019-06-01T00:15:19.891Z,15.79
2019-06-01T00:17:50.035Z,15.75
2019-06-01T00:20:19.802Z,15.72
2019-06-01T00:22:52.337Z,15.71
2019-06-01T00:25:25.118Z,15.65
2019-06-01T00:27:54.769Z,15.59
2019-06-01T00:30:27.369Z,15.57
2019-06-01T00:32:55.974Z,15.60
2019-06-01T00:35:25.648Z,15.60
2019-06-01T00:37:55.271Z,15.57
2019-06-01T00:40:24.952Z,15.55
2019-06-01T00:42:54.607Z,15.55
2019-06-01T00:45:24.235Z,15.51
2019-06-01T00:47:53.859Z,15.51
2019-06-01T00:50:23.782Z,15.54
2019-06-01T00:52:53.509Z,15.53
2019-06-01T00:55:23.684Z,15.45
2019-06-01T00:57:54.024Z,15.44
2019-06-01T01:00:23.743Z,15.47
2019-06-01T01:02:54.376Z,15.46
2019-06-01T01:05:24.498Z,15.46
2019-06-01T01:07:55.097Z,15.47
2019-06-01T01:10:24.825Z,15.50
2019-06-01T01:13:04.763Z,15.51
2019-06-01T01:15:34.957Z,15.48
2019-06-01T01:18:06.896Z,15.46
2019-06-01T01:20:38.070Z,15.41
2019-06-01T01:23:08.554Z,15.37
2019-06-01T01:25:38.161Z,15.34
2019-06-01T01:28:07.852Z,15.35
2019-06-01T01:30:37.671Z,15.30
2019-06-01T01:33:07.566Z,15.26
2019-06-01T01:35:37.234Z,15.21
2019-06-01T01:38:06.863Z,15.22
2019-06-01T01:40:36.495Z,15.21
2019-06-01T01:43:06.161Z,15.22
2019-06-01T01:45:35.778Z,15.21
2019-06-01T01:48:05.664Z,15.23
2019-06-01T01:50:35.638Z,15.21
2019-06-01T01:53:05.330Z,15.17
2019-06-01T01:55:34.954Z,15.14
2019-06-01T01:58:04.679Z,15.09
2019-06-01T02:00:40.561Z,15.06
2019-06-01T02:03:10.374Z,15.10
2019-06-01T02:05:40.047Z,15.13
2019-06-01T02:08:10.098Z,15.12
2019-06-01T02:10:39.940Z,15.11
2019-06-01T02:13:09.899Z,15.08
2019-06-01T02:15:41.075Z,15.03
2019-06-01T02:18:10.793Z,14.99
2019-06-01T02:20:40.404Z,14.90
2019-06-01T02:23:10.037Z,14.91
2019-06-01T02:25:40.484Z,14.87
2019-06-01T02:28:10.555Z,14.88
2019-06-01T02:30:40.253Z,14.90
2019-06-01T02:33:10.060Z,14.89
2019-06-01T02:35:45.794Z,14.82
2019-06-01T02:38:15.382Z,14.86
2019-06-01T02:40:45.430Z,14.83
2019-06-01T02:43:15.111Z,14.84
2019-06-01T02:45:45.000Z,14.86
2019-06-01T02:48:14.680Z,14.89
2019-06-01T02:50:44.282Z,14.86
2019-06-01T02:53:13.920Z,14.89
2019-06-01T02:55:44.557Z,14.86
2019-06-01T02:58:14.190Z,14.85
2019-06-01T03:00:49.608Z,14.90
2019-06-01T03:03:19.517Z,14.92
2019-06-01T03:05:50.680Z,14.87
2019-06-01T03:08:20.638Z,14.86
2019-06-01T03:10:52.606Z,14.86
2019-06-01T03:13:25.017Z,14.84
2019-06-01T03:15:56.693Z,14.82
2019-06-01T03:18:28.208Z,14.83
2019-06-01T03:20:59.810Z,14.86
2019-06-01T03:23:31.284Z,14.88
2019-06-01T03:26:04.481Z,14.90
2019-06-01T03:28:37.152Z,14.90
2019-06-01T03:31:08.818Z,14.87
2019-06-01T03:33:38.146Z,14.85
2019-06-01T03:36:08.987Z,14.85
2019-06-01T03:38:38.848Z,14.85
2019-06-01T03:41:08.684Z,14.88
2019-06-01T03:43:38.395Z,14.88
2019-06-01T03:46:08.768Z,14.82
2019-06-01T03:48:39.968Z,14.79
2019-06-01T03:51:09.885Z,14.75
2019-06-01T03:53:39.643Z,14.70
2019-06-01T03:56:09.297Z,14.64
2019-06-01T03:58:39.497Z,14.60
2019-06-01T04:01:09.595Z,14.60
2019-06-01T04:03:39.543Z,14.64
2019-06-01T04:06:09.490Z,14.62
2019-06-01T04:08:39.290Z,14.58
2019-06-01T04:11:09.770Z,14.58
2019-06-01T04:13:40.447Z,14.54
2019-06-01T04:16:10.352Z,14.51
2019-06-01T04:18:40.371Z,14.54
2019-06-01T04:21:10.334Z,14.62
2019-06-01T04:23:40.028Z,14.64
2019-06-01T04:26:10.288Z,14.70
2019-06-01T04:28:40.093Z,14.70
2019-06-01T04:31:10.853Z,14.69
2019-06-01T04:33:40.642Z,14.73
2019-06-01T04:36:10.968Z,14.73
2019-06-01T04:38:40.933Z,14.77
2019-06-01T04:41:11.978Z,14.83
2019-06-01T04:43:41.743Z,14.90
2019-06-01T04:46:12.341Z,14.96
2019-06-01T04:48:42.206Z,15.02
2019-06-01T04:51:13.377Z,15.06
2019-06-01T04:53:43.239Z,15.10
2019-06-01T04:56:13.118Z,15.10
2019-06-01T04:58:42.760Z,15.09
2019-06-01T05:01:13.049Z,15.12
2019-06-01T05:03:42.826Z,15.15
2019-06-01T05:06:13.415Z,15.22
2019-06-01T05:08:43.463Z,15.29
2019-06-01T05:11:13.546Z,15.29
2019-06-01T05:13:43.279Z,15.33
2019-06-01T05:16:14.846Z,15.33
2019-06-01T05:18:44.814Z,15.30
2019-06-01T05:21:15.260Z,15.24
2019-06-01T05:23:45.312Z,15.22
2019-06-01T05:26:15.162Z,15.24
2019-06-01T05:28:44.813Z,15.28
2019-06-01T05:31:21.984Z,15.34
2019-06-01T05:33:45.959Z,15.38
2019-06-01T05:36:16.246Z,15.45
2019-06-01T05:38:46.046Z,15.53
2019-06-01T05:41:16.695Z,15.60
2019-06-01T05:43:46.327Z,15.66
2019-06-01T05:46:16.165Z,15.72
2019-06-01T05:48:45.782Z,15.82
2019-06-01T05:51:18.141Z,15.90
2019-06-01T05:53:46.793Z,15.97
2019-06-01T05:56:16.882Z,16.01
2019-06-01T05:58:46.652Z,16.04
2019-06-01T06:01:16.491Z,16.07
2019-06-01T06:03:46.221Z,16.11
2019-06-01T06:06:15.874Z,16.14
2019-06-01T06:08:45.487Z,16.17
2019-06-01T06:11:15.156Z,16.25
2019-06-01T06:13:44.778Z,16.31
2019-06-01T06:16:15.632Z,16.37
2019-06-01T06:18:45.706Z,16.44
2019-06-01T06:21:16.064Z,16.48
2019-06-01T06:23:45.745Z,16.51
2019-06-01T06:26:16.820Z,16.56
2019-06-01T06:28:46.724Z,16.61
2019-06-01T06:31:17.027Z,16.64
2019-06-01T06:33:56.126Z,16.70
2019-06-01T06:36:19.685Z,16.79
2019-06-01T06:38:49.428Z,16.83
2019-06-01T06:41:20.355Z,16.87
2019-06-01T06:43:50.796Z,16.91
2019-06-01T06:46:20.762Z,16.98
2019-06-01T06:48:51.148Z,17.03
2019-06-01T06:51:21.268Z,17.06
2019-06-01T06:53:50.964Z,17.05
2019-06-01T06:56:21.749Z,17.08
2019-06-01T06:58:51.643Z,17.15
2019-06-01T07:01:22.812Z,17.24
2019-06-01T07:03:52.678Z,17.27
2019-06-01T07:06:23.574Z,17.33
2019-06-01T07:08:54.069Z,17.37
2019-06-01T07:11:24.002Z,17.39
2019-06-01T07:13:54.709Z,17.43
2019-06-01T07:16:25.463Z,17.47
2019-06-01T07:18:55.209Z,17.52
2019-06-01T07:21:25.852Z,17.54
2019-06-01T07:23:55.674Z,17.54
2019-06-01T07:26:26.209Z,17.56
2019-06-01T07:28:56.013Z,17.58
2019-06-01T07:31:26.510Z,17.61
2019-06-01T07:33:56.192Z,17.65
2019-06-01T07:36:26.714Z,17.69
2019-06-01T07:38:56.788Z,17.71
2019-06-01T07:41:26.737Z,17.74
2019-06-01T07:43:56.383Z,17.76
2019-06-01T07:46:26.900Z,17.79
2019-06-01T07:48:56.588Z,17.81
2019-06-01T07:51:27.406Z,17.84
2019-06-01T07:53:57.381Z,17.87
2019-06-01T07:56:27.066Z,17.90
2019-06-01T07:58:56.684Z,17.91
2019-06-01T08:01:27.807Z,17.92
2019-06-01T08:03:57.869Z,17.95
2019-06-01T08:06:28.109Z,17.98
2019-06-01T08:08:58.800Z,18.01
2019-06-01T08:11:32.745Z,18.03
2019-06-01T08:14:00.499Z,18.06
2019-06-01T08:16:30.134Z,18.09
2019-06-01T08:19:00.103Z,18.13
2019-06-01T08:21:30.175Z,18.19
2019-06-01T08:23:59.798Z,18.25
2019-06-01T08:26:30.540Z,18.29
2019-06-01T08:29:00.363Z,18.33
2019-06-01T08:31:31.813Z,18.36
2019-06-01T08:34:02.204Z,18.39
2019-06-01T08:36:33.762Z,18.40
2019-06-01T08:39:11.123Z,18.43
2019-06-01T08:41:40.996Z,18.47
2019-06-01T08:44:10.940Z,18.52
2019-06-01T08:46:40.560Z,18.55
2019-06-01T08:49:10.325Z,18.60
2019-06-01T08:51:40.099Z,18.64
2019-06-01T08:54:09.785Z,18.71
2019-06-01T08:56:39.707Z,18.73
2019-06-01T08:59:09.699Z,18.76
2019-06-01T09:01:39.416Z,18.80
2019-06-01T09:04:09.203Z,18.82
2019-06-01T09:06:39.128Z,18.88
2019-06-01T09:09:11.652Z,18.94
2019-06-01T09:11:40.418Z,18.98
2019-06-01T09:14:10.041Z,19.04
2019-06-01T09:16:39.758Z,19.08
2019-06-01T09:19:11.746Z,19.16
2019-06-01T09:21:41.521Z,19.23
2019-06-01T09:24:11.148Z,19.24
2019-06-01T09:26:40.865Z,19.26
2019-06-01T09:29:10.864Z,19.28
2019-06-01T09:31:40.483Z,19.29
2019-06-01T09:34:10.165Z,19.32
2019-06-01T09:36:39.783Z,19.37
2019-06-01T09:39:09.422Z,19.44
2019-06-01T09:41:39.071Z,19.51
2019-06-01T09:44:08.700Z,19.57
2019-06-01T09:46:38.338Z,19.61
2019-06-01T09:49:08.031Z,19.62
2019-06-01T09:51:37.899Z,19.70
2019-06-01T09:54:07.654Z,19.77
2019-06-01T09:56:39.273Z,19.78
2019-06-01T09:59:08.659Z,19.80
2019-06-01T10:01:38.851Z,19.83
2019-06-01T10:04:09.555Z,19.90
2019-06-01T10:06:43.387Z,19.93
2019-06-01T10:09:13.031Z,19.97
2019-06-01T10:11:42.690Z,20.00
2019-06-01T10:14:12.325Z,20.01
2019-06-01T10:16:43.179Z,20.01
2019-06-01T10:19:12.942Z,20.00
2019-06-01T10:21:42.561Z,19.99
2019-06-01T10:24:12.192Z,20.01
2019-06-01T10:26:41.981Z,20.06
2019-06-01T10:29:11.565Z,20.15
2019-06-01T10:31:41.623Z,20.20
2019-06-01T10:34:11.360Z,20.24
2019-06-01T10:36:42.198Z,20.28
2019-06-01T10:39:12.591Z,20.34
2019-06-01T10:41:42.256Z,20.39
2019-06-01T10:44:11.879Z,20.43
2019-06-01T10:46:42.191Z,20.48
2019-06-01T10:49:12.329Z,20.54
2019-06-01T10:51:42.336Z,20.58
2019-06-01T10:54:12.129Z,20.65
2019-06-01T10:56:42.589Z,20.72
2019-06-01T10:59:12.297Z,20.76
2019-06-01T11:01:42.758Z,20.79
2019-06-01T11:04:12.475Z,20.82
2019-06-01T11:06:47.752Z,20.86
2019-06-01T11:09:15.099Z,20.88
2019-06-01T11:11:44.855Z,20.92
2019-06-01T11:14:14.475Z,20.97
2019-06-01T11:16:44.239Z,21.03
2019-06-01T11:19:14.017Z,21.13
2019-06-01T11:21:43.903Z,21.19
2019-06-01T11:24:13.694Z,21.33
2019-06-01T11:26:43.923Z,21.27
2019-06-01T11:29:13.582Z,21.30
2019-06-01T11:31:44.209Z,21.29
2019-06-01T11:34:14.002Z,21.31
2019-06-01T11:37:03.655Z,21.36
2019-06-01T11:39:14.956Z,21.40
2019-06-01T11:41:44.871Z,21.46
2019-06-01T11:44:14.669Z,21.66
2019-06-01T11:46:45.158Z,21.79
2019-06-01T11:49:15.065Z,21.92
2019-06-01T11:51:45.256Z,22.04
2019-06-01T11:54:15.054Z,22.04
2019-06-01T11:56:45.529Z,22.13
2019-06-01T11:59:15.319Z,22.19
2019-06-01T12:01:46.062Z,22.27
2019-06-01T12:04:15.836Z,22.43
2019-06-01T12:06:46.317Z,22.62
2019-06-01T12:09:16.047Z,22.81
2019-06-01T12:11:46.395Z,22.90
2019-06-01T12:14:16.133Z,23.00
2019-06-01T12:16:46.761Z,23.10
2019-06-01T12:19:16.613Z,23.23
2019-06-01T12:21:47.434Z,23.36
2019-06-01T12:24:17.203Z,23.36
2019-06-01T12:26:47.625Z,23.15
2019-06-01T12:29:17.402Z,23.08
2019-06-01T12:31:48.183Z,23.07
2019-06-01T12:34:17.997Z,23.01
2019-06-01T12:36:48.498Z,23.03
2019-06-01T12:39:18.222Z,23.00
2019-06-01T12:41:47.942Z,22.99
2019-06-01T12:44:17.525Z,23.04
2019-06-01T12:46:47.280Z,23.13
2019-06-01T12:49:16.874Z,23.26
2019-06-01T12:51:47.055Z,23.45
2019-06-01T12:54:16.882Z,23.53
2019-06-01T12:56:47.796Z,23.64
2019-06-01T12:59:17.896Z,23.75
2019-06-01T13:01:47.548Z,23.72
2019-06-01T13:04:17.167Z,23.67
2019-06-01T13:06:52.010Z,23.65
2019-06-01T13:09:20.363Z,23.67
2019-06-01T13:11:51.371Z,23.71
2019-06-01T13:14:21.258Z,23.76
2019-06-01T13:17:05.914Z,23.71
2019-06-01T13:19:22.308Z,23.65
2019-06-01T13:21:51.983Z,23.56
2019-06-01T13:24:21.723Z,23.47
2019-06-01T13:26:51.953Z,23.46
2019-06-01T13:29:21.661Z,23.60
2019-06-01T13:31:52.582Z,23.76
2019-06-01T13:34:22.426Z,23.82
2019-06-01T13:36:53.006Z,23.70
2019-06-01T13:39:22.851Z,23.58
2019-06-01T13:41:53.467Z,23.54
2019-06-01T13:44:23.844Z,23.49
2019-06-01T13:46:53.769Z,23.58
2019-06-01T13:49:23.413Z,23.58
2019-06-01T13:51:53.045Z,23.57
2019-06-01T13:54:22.731Z,23.60
2019-06-01T13:56:53.025Z,23.62
2019-06-01T13:59:22.855Z,23.69
2019-06-01T14:01:53.185Z,23.78
2019-06-01T14:04:22.945Z,23.87
2019-06-01T14:06:53.174Z,23.86
2019-06-01T14:09:22.955Z,23.83
2019-06-01T14:11:53.515Z,23.75
2019-06-01T14:14:23.196Z,23.65
2019-06-01T14:16:53.591Z,23.60
2019-06-01T14:19:23.270Z,23.56
2019-06-01T14:21:54.215Z,23.51
2019-06-01T14:27:58.663Z,23.20
2019-06-01T14:30:28.787Z,22.91
2019-06-01T14:32:58.404Z,22.73
2019-06-01T14:35:28.047Z,22.57
2019-06-01T14:37:57.703Z,22.40
2019-06-01T14:40:27.413Z,22.28
2019-06-01T14:42:57.787Z,22.22
2019-06-01T14:45:27.707Z,22.19
2019-06-01T14:47:57.712Z,22.17
2019-06-01T14:50:27.385Z,22.27
2019-06-01T14:52:57.871Z,22.35
2019-06-01T14:55:27.668Z,22.32
2019-06-01T14:57:58.412Z,22.28
2019-06-01T15:00:28.264Z,22.15
2019-06-01T15:02:58.401Z,22.06
2019-06-01T15:05:28.256Z,21.89
2019-06-01T15:07:59.011Z,21.74
2019-06-01T15:10:36.623Z,21.62
2019-06-01T15:13:06.284Z,21.61
2019-06-01T15:15:35.903Z,21.63
2019-06-01T15:18:05.803Z,21.57
2019-06-01T15:20:53.798Z,21.48
2019-06-01T15:23:23.450Z,21.43
2019-06-01T15:25:54.398Z,21.54
2019-06-01T15:28:24.292Z,21.65
2019-06-01T15:30:54.850Z,21.81
2019-06-01T15:33:33.630Z,21.97
2019-06-01T15:36:15.368Z,22.17
2019-06-01T15:53:17.781Z,22.55
2019-06-01T15:55:47.401Z,22.60
2019-06-01T15:58:17.031Z,22.49
2019-06-01T16:00:46.699Z,22.41
2019-06-01T16:03:16.387Z,22.29
2019-06-01T16:05:46.022Z,22.22
2019-06-01T16:08:15.828Z,22.13
2019-06-01T16:10:46.024Z,22.08
2019-06-01T16:13:16.218Z,22.05
2019-06-01T16:15:45.904Z,21.98
2019-06-01T16:18:17.139Z,21.91
2019-06-01T16:20:52.129Z,21.87
2019-06-01T16:23:21.835Z,21.90
2019-06-01T16:26:03.794Z,21.88
2019-06-01T16:35:43.345Z,21.72
2019-06-01T16:50:16.048Z,22.06
2019-06-01T16:56:33.399Z,22.25
2019-06-01T16:59:04.306Z,22.26
2019-06-01T17:01:33.931Z,22.22
2019-06-01T17:04:04.682Z,22.21
2019-06-01T17:06:36.230Z,22.20
2019-06-01T17:09:08.057Z,22.16
2019-06-01T17:11:37.859Z,22.13
2019-06-01T17:27:44.539Z,22.06
2019-06-01T17:30:14.226Z,21.98
2019-06-01T17:33:00.704Z,21.94
2019-06-01T17:35:29.874Z,21.95
2019-06-01T17:38:00.698Z,21.90
2019-06-01T17:40:37.670Z,21.85
2019-06-01T17:43:04.691Z,21.84
2019-06-01T17:45:34.650Z,21.81
2019-06-01T17:48:18.093Z,21.78
2019-06-01T17:50:36.587Z,21.76
2019-06-01T17:53:06.786Z,21.68
2019-06-01T17:55:40.811Z,21.59
2019-06-01T17:58:12.242Z,21.52
2019-06-01T18:00:42.221Z,21.47
2019-06-01T18:03:12.244Z,21.41
2019-06-01T18:05:42.013Z,21.36
2019-06-01T18:08:12.650Z,21.39
2019-06-01T18:10:54.122Z,21.38
2019-06-01T18:13:15.397Z,21.35
2019-06-01T18:15:45.044Z,21.35
2019-06-01T18:18:14.870Z,21.26
2019-06-01T18:20:44.782Z,21.27
2019-06-01T18:23:14.454Z,21.23
2019-06-01T18:25:44.112Z,21.12
2019-06-01T18:28:18.617Z,21.14
2019-06-01T18:30:45.597Z,21.10
2019-06-01T18:33:15.327Z,21.01
2019-06-01T18:35:45.223Z,21.01
2019-06-01T18:38:15.466Z,21.01
2019-06-01T18:40:46.893Z,21.00
2019-06-01T18:43:18.767Z,21.00
2019-06-01T18:45:49.414Z,20.99
2019-06-01T18:48:20.181Z,20.95
2019-06-01T18:50:49.903Z,20.89
2019-06-01T18:53:19.603Z,20.83
2019-06-01T18:55:49.342Z,20.74
2019-06-01T18:58:19.895Z,20.67
2019-06-01T19:00:49.542Z,20.61
2019-06-01T19:03:19.216Z,20.56
2019-06-01T19:05:48.920Z,20.48
2019-06-01T19:08:18.545Z,20.42
2019-06-01T19:10:49.157Z,20.33
2019-06-01T19:13:19.279Z,20.24
2019-06-01T19:22:08.437Z,20.11
2019-06-01T19:28:39.807Z,20.04
2019-06-01T19:31:15.291Z,19.98
2019-06-01T19:33:47.076Z,19.91
2019-06-01T19:36:17.198Z,19.86
2019-06-01T19:38:47.512Z,19.79
2019-06-01T19:41:17.541Z,19.77
2019-06-01T19:43:47.675Z,19.72
2019-06-01T19:46:18.032Z,19.69
2019-06-01T19:48:47.901Z,19.64
2019-06-01T19:51:18.785Z,19.61
2019-06-01T19:53:48.733Z,19.52
2019-06-01T19:56:20.484Z,19.48
2019-06-01T19:58:49.764Z,19.46
2019-06-01T20:01:19.418Z,19.44
2019-06-01T20:03:49.117Z,19.40
2019-06-01T20:06:18.993Z,19.34
2019-06-01T20:08:48.695Z,19.32
2019-06-01T20:11:19.339Z,19.31
2019-06-01T20:13:49.348Z,19.28
2019-06-01T20:16:20.179Z,19.27
2019-06-01T20:18:50.315Z,19.25
2019-06-01T20:21:20.660Z,19.23
2019-06-01T20:23:51.842Z,19.20
2019-06-01T20:26:38.711Z,19.14
2019-06-01T20:28:53.446Z,19.06
2019-06-01T20:31:23.154Z,19.09
2019-06-01T20:33:56.240Z,19.06
2019-06-01T20:36:24.520Z,19.03
2019-06-01T20:38:54.164Z,19.04
2019-06-01T20:41:23.855Z,19.07
2019-06-01T20:43:53.529Z,19.10
2019-06-01T20:46:23.533Z,19.14
2019-06-01T20:48:53.220Z,19.17
2019-06-01T20:51:26.892Z,19.20
2019-06-01T20:53:54.446Z,19.18
2019-06-01T20:56:24.130Z,19.18
2019-06-01T20:58:53.755Z,19.16
2019-06-01T21:01:38.391Z,19.15
2019-06-01T21:04:08.769Z,19.21
2019-06-01T21:06:38.576Z,19.19
2019-06-01T21:09:09.392Z,19.13
2019-06-01T21:11:39.035Z,19.11
2019-06-01T21:14:08.643Z,19.11
2019-06-01T21:16:38.311Z,19.06
2019-06-01T21:19:08.028Z,19.00
2019-06-01T21:21:37.666Z,19.01
2019-06-01T21:24:07.346Z,19.01
2019-06-01T21:26:36.989Z,19.01
2019-06-01T21:29:06.622Z,18.98
2019-06-01T21:31:36.324Z,18.94
2019-06-01T21:34:05.945Z,18.93
2019-06-01T21:36:35.581Z,18.90
2019-06-01T21:39:08.018Z,18.78
2019-06-01T21:41:37.640Z,18.79
2019-06-01T21:44:09.274Z,18.80
2019-06-01T21:46:40.373Z,18.80
2019-06-01T21:49:13.891Z,18.83
2019-06-01T21:55:18.093Z,18.82
2019-06-01T21:57:47.753Z,18.84
2019-06-01T22:00:30.439Z,18.80
2019-06-01T22:03:03.228Z,18.79
2019-06-01T22:05:34.487Z,18.77
2019-06-01T22:08:04.564Z,18.74
2019-06-01T22:10:34.204Z,18.73
2019-06-01T22:13:17.666Z,18.68
2019-06-01T22:15:35.453Z,18.65
2019-06-01T22:18:05.704Z,18.62
2019-06-01T22:20:35.340Z,18.61
2019-06-01T22:23:05.200Z,18.58
2019-06-01T22:25:36.797Z,18.54
2019-06-01T22:28:06.521Z,18.50
2019-06-01T22:30:36.157Z,18.49
2019-06-01T22:33:05.779Z,18.52
2019-06-01T22:35:35.462Z,18.54
2019-06-01T22:38:05.227Z,18.53
2019-06-01T22:40:34.873Z,18.50
2019-06-01T22:43:07.907Z,18.54
2019-06-01T22:45:37.770Z,18.57
2019-06-01T22:48:07.410Z,18.58
2019-06-01T22:50:37.045Z,18.57
2019-06-01T22:53:06.804Z,18.56
2019-06-01T22:55:36.419Z,18.55
2019-06-01T22:58:06.129Z,18.53
2019-06-01T23:00:35.814Z,18.51
2019-06-01T23:03:05.479Z,18.49
2019-06-01T23:05:35.126Z,18.45
2019-06-01T23:08:04.873Z,18.40
2019-06-01T23:10:35.519Z,18.37
2019-06-01T23:13:06.059Z,18.37
2019-06-01T23:15:35.745Z,18.36
2019-06-01T23:18:05.447Z,18.34
2019-06-01T23:20:35.074Z,18.30
2019-06-01T23:23:04.801Z,18.28
2019-06-01T23:25:34.415Z,18.27
2019-06-01T23:28:04.049Z,18.24
2019-06-01T23:30:33.711Z,18.19
2019-06-01T23:33:03.336Z,18.15
2019-06-01T23:35:32.978Z,18.14
2019-06-01T23:38:02.715Z,18.08
2019-06-01T23:40:32.771Z,18.01
2019-06-01T23:43:02.713Z,17.98
2019-06-01T23:45:34.975Z,17.92
2019-06-01T23:48:04.669Z,17.89
2019-06-01T23:50:34.281Z,17.88
2019-06-01T23:53:13.162Z,17.90
2019-06-01T23:55:35.562Z,17.88
2019-06-01T23:58:05.618Z,17.83
